Eldorado — PEEA — position and weather

sailwx.info

Track history (hours):
 
Tides and Currents Weather Stations Pressure Air Temp Water Temp Dewpoint Dewpoint Depression Visibility Wind Speed Wind Dir Waves Ship Positions

Eldorado

Last reported at 2017-Apr-27 03:37 UTC. Time now 2017-Apr-27 07:14 UTC.
Position N 18°01' W 063°03'.

Length 38 m; draft 3 m.

Type: Sailing vessel. MMSI: 244670000.

Date/timePositionNaut miles runAvg speedWind from/ knotsBaromVisibWave heightAir tempDewpointWater temp
2017-Apr-27 03:37N 18°01' W 063°03'  
2017-Apr-23 15:35N 18°01' W 063°04'1 5.8
2017-Apr-23 15:29N 18°01' W 063°04'3 5.3
2017-Apr-23 15:00N 18°02' W 063°07'1 1.1
2017-Apr-23 13:58N 18°02' W 063°08'3 4.8
2017-Apr-23 13:27N 18°01' W 063°05'2 0.1
2017-Apr-22 08:42N 18°01' W 063°03'1 0.1
2017-Apr-21 20:28N 18°01' W 063°04'3 6.4
2017-Apr-21 20:00N 18°02' W 063°07'1 2.4
2017-Apr-21 19:27N 18°03' W 063°08'0 0.7
2017-Apr-21 18:54N 18°02' W 063°08'2 4.8
2017-Apr-21 18:30N 18°01' W 063°06'3 0.1
2017-Apr-20 23:01N 18°01' W 063°03'0 0.0
2017-Apr-20 21:46N 18°01' W 063°03'0 0.1
2017-Apr-20 18:47N 18°01' W 063°03'1 3.5
2017-Apr-20 18:26N 17°59' W 063°03'1 3.1
2017-Apr-20 18:00N 17°59' W 063°02'2 4.0
2017-Apr-20 17:30N 18°00' W 063°03'1 0.4
2017-Apr-20 15:42N 18°01' W 063°03'2 6.9
2017-Apr-20 15:25N 18°01' W 063°05'3 5.5
2017-Apr-20 14:57N 18°03' W 063°08'0 0.0
2017-Apr-20 14:27N 18°03' W 063°08'3 3.6
2017-Apr-20 13:29N 18°01' W 063°04'2 0.1
2017-Apr-19 20:11N 18°01' W 063°03'1 5.6
2017-Apr-19 19:58N 18°01' W 063°04'4 6.4
2017-Apr-19 19:22N 18°03' W 063°08'0 0.4
2017-Apr-19 18:55N 18°03' W 063°08'1 1.6
2017-Apr-19 18:27N 18°02' W 063°07'2 4.2
2017-Apr-19 17:58N 18°01' W 063°05'2 0.8
2017-Apr-19 15:33N 18°01' W 063°03'1 6.7
2017-Apr-19 15:24N 18°01' W 063°05'3 6.6
2017-Apr-19 14:57N 18°02' W 063°07'1 0.9
2017-Apr-19 14:17N 18°03' W 063°08'3 3.6
2017-Apr-19 13:25N 18°01' W 063°05'  
Track history (hours):
 
Tides and Currents Weather Stations Pressure Air Temp Water Temp Dewpoint Dewpoint Depression Visibility Wind Speed Wind Dir Waves Ship Positions

Eldorado

Last reported at 2017-Apr-27 03:37 UTC. Time now 2017-Apr-27 07:14 UTC.
Position N 18°01' W 063°03'.

Length 38 m; draft 3 m.

Type: Sailing vessel. MMSI: 244670000.

Date/timePositionNaut miles runAvg speedWind from/ knotsBaromVisibWave heightAir tempDewpointWater temp
2017-Apr-27 03:37N 18°01' W 063°03'  
2017-Apr-23 15:35N 18°01' W 063°04'1 5.8
2017-Apr-23 15:29N 18°01' W 063°04'3 5.3
2017-Apr-23 15:00N 18°02' W 063°07'1 1.1
2017-Apr-23 13:58N 18°02' W 063°08'3 4.8
2017-Apr-23 13:27N 18°01' W 063°05'2 0.1
2017-Apr-22 08:42N 18°01' W 063°03'1 0.1
2017-Apr-21 20:28N 18°01' W 063°04'3 6.4
2017-Apr-21 20:00N 18°02' W 063°07'1 2.4
2017-Apr-21 19:27N 18°03' W 063°08'0 0.7
2017-Apr-21 18:54N 18°02' W 063°08'2 4.8
2017-Apr-21 18:30N 18°01' W 063°06'3 0.1
2017-Apr-20 23:01N 18°01' W 063°03'0 0.0
2017-Apr-20 21:46N 18°01' W 063°03'0 0.1
2017-Apr-20 18:47N 18°01' W 063°03'1 3.5
2017-Apr-20 18:26N 17°59' W 063°03'1 3.1
2017-Apr-20 18:00N 17°59' W 063°02'2 4.0
2017-Apr-20 17:30N 18°00' W 063°03'1 0.4
2017-Apr-20 15:42N 18°01' W 063°03'2 6.9
2017-Apr-20 15:25N 18°01' W 063°05'3 5.5
2017-Apr-20 14:57N 18°03' W 063°08'0 0.0
2017-Apr-20 14:27N 18°03' W 063°08'3 3.6
2017-Apr-20 13:29N 18°01' W 063°04'2 0.1
2017-Apr-19 20:11N 18°01' W 063°03'1 5.6
2017-Apr-19 19:58N 18°01' W 063°04'4 6.4
2017-Apr-19 19:22N 18°03' W 063°08'0 0.4
2017-Apr-19 18:55N 18°03' W 063°08'1 1.6
2017-Apr-19 18:27N 18°02' W 063°07'2 4.2
2017-Apr-19 17:58N 18°01' W 063°05'2 0.8
2017-Apr-19 15:33N 18°01' W 063°03'1 6.7
2017-Apr-19 15:24N 18°01' W 063°05'3 6.6
2017-Apr-19 14:57N 18°02' W 063°07'1 0.9
2017-Apr-19 14:17N 18°03' W 063°08'3 3.6
2017-Apr-19 13:25N 18°01' W 063°05'  

Dump ship's entire track history